Time;durP1;ratioP1;P1;durP2;ratioP2;P2;SDS_P1;SDS_P2;PMS_P1;PMS_P2;Temp;Humidity;BMP_temperature;BMP_pressure;BME280_temperature;BME280_humidity;BME280_pressure;Samples;Min_cycle;Max_cycle;Signal;HPM_P1;HPM_P2
2023/02/11 00:02:57;;;;;;;97.00;48.80;;;;;;;-2.78;77.62;100456.89;221257;1280;22806;-72
2023/02/11 00:07:59;;;;;;;75.50;40.30;;;;;;;-2.82;77.79;100454.48;221190;1280;25520;-71
2023/02/11 00:13:06;;;;;;;75.30;40.20;;;;;;;-2.86;77.81;100451.52;221180;1280;24241;-71
2023/02/11 00:18:07;;;;;;;83.20;40.90;;;;;;;-2.89;78.03;100454.04;221121;1279;22540;-71
2023/02/11 00:23:10;;;;;;;77.90;40.20;;;;;;;-2.91;77.90;100450.32;221335;1280;22551;-70
2023/02/11 00:28:12;;;;;;;73.40;40.40;;;;;;;-2.94;78.03;100441.14;221421;1280;23831;-71
2023/02/11 00:33:14;;;;;;;71.50;37.40;;;;;;;-2.97;78.14;100445.95;221358;1280;22696;-71
2023/02/11 00:38:18;;;;;;;68.20;36.90;;;;;;;-2.99;78.22;100442.41;221380;1279;26749;-72
2023/02/11 00:43:19;;;;;;;74.40;38.50;;;;;;;-3.00;78.48;100437.46;221284;1277;23840;-72
2023/02/11 00:48:26;;;;;;;70.70;37.80;;;;;;;-3.03;78.56;100420.83;221372;1280;22575;-71
2023/02/11 00:53:28;;;;;;;71.10;37.40;;;;;;;-3.04;78.61;100410.19;221339;1270;24193;-72
2023/02/11 00:58:30;;;;;;;67.30;36.50;;;;;;;-3.03;78.74;100397.06;221313;1279;22564;-71
2023/02/11 01:03:33;;;;;;;67.60;36.00;;;;;;;-3.01;78.82;100369.24;221109;1280;22787;-71
2023/02/11 01:08:35;;;;;;;71.20;36.40;;;;;;;-2.99;78.85;100355.39;221348;1277;23219;-71
2023/02/11 01:13:37;;;;;;;66.50;35.80;;;;;;;-2.98;79.05;100349.98;221210;1276;22636;-70
2023/02/11 01:18:41;;;;;;;70.80;39.10;;;;;;;-2.96;79.15;100342.49;221425;1280;25517;-71
2023/02/11 01:23:43;;;;;;;62.90;35.60;;;;;;;-2.93;79.27;100337.84;221470;1257;23884;-70
2023/02/11 01:28:46;;;;;;;65.80;35.90;;;;;;;-2.89;79.20;100338.38;221413;1272;23960;-71
2023/02/11 01:33:48;;;;;;;67.60;37.10;;;;;;;-2.84;79.40;100331.61;221194;1274;22555;-72
2023/02/11 01:38:50;;;;;;;67.10;37.20;;;;;;;-2.77;79.57;100314.23;221279;1280;24011;-71
2023/02/11 01:43:53;;;;;;;64.50;36.00;;;;;;;-2.71;79.54;100319.88;221344;1272;22692;-70
2023/02/11 01:49:04;;;;;;;56.40;32.70;;;;;;;-2.64;79.41;100312.99;221296;1273;22568;-71
2023/02/11 01:59:37;;;;;;;58.40;33.60;;;;;;;-2.46;79.74;100309.11;221239;1276;22585;-71
2023/02/11 02:04:49;;;;;;;59.90;31.90;;;;;;;-2.38;79.35;100298.39;221419;1278;22554;-70
2023/02/11 02:10:00;;;;;;;55.60;32.00;;;;;;;-2.31;79.65;100273.90;221451;1276;22744;-71
2023/02/11 02:15:25;;;;;;;57.30;33.30;;;;;;;-2.24;79.60;100258.56;221356;1273;24235;-71
2023/02/11 02:20:37;;;;;;;58.10;32.30;;;;;;;-2.16;79.73;100238.15;221354;1278;22668;-70
2023/02/11 02:26:13;;;;;;;48.20;29.00;;;;;;;-2.06;79.73;100228.39;221034;1276;25446;-73
2023/02/11 02:31:40;;;;;;;47.30;28.00;;;;;;;-1.98;79.38;100225.77;221369;1277;22603;-70
2023/02/11 02:37:09;;;;;;;52.80;31.00;;;;;;;-1.92;79.08;100216.48;221175;1280;22642;-70
2023/02/11 02:42:13;;;;;;;52.90;30.40;;;;;;;-1.86;78.85;100215.31;221229;1280;24301;-72
2023/02/11 02:47:15;;;;;;;52.90;29.60;;;;;;;-1.77;79.18;100204.20;221346;1276;22758;-70
2023/02/11 02:52:30;;;;;;;50.20;28.60;;;;;;;-1.71;78.75;100186.27;221336;1277;22547;-71
2023/02/11 02:57:59;;;;;;;50.70;28.20;;;;;;;-1.65;78.81;100174.77;221184;1279;22535;-72
2023/02/11 03:03:28;;;;;;;;;;;;;;;-1.60;78.51;100186.59;221190;1274;22881;-71
2023/02/11 03:08:37;;;;;;;46.90;28.90;;;;;;;-1.57;78.63;100181.58;221087;1280;22570;-71
2023/02/11 03:13:42;;;;;;;46.00;26.90;;;;;;;-1.54;78.28;100185.08;221129;1277;24353;-71
2023/02/11 03:18:49;;;;;;;50.80;27.20;;;;;;;-1.52;78.02;100179.98;221142;1277;22543;-71
2023/02/11 03:23:59;;;;;;;46.80;28.20;;;;;;;-1.51;78.22;100186.65;221056;1280;24298;-71
2023/02/11 03:29:16;;;;;;;46.30;26.00;;;;;;;-1.50;77.98;100170.91;221466;1280;24298;-71
2023/02/11 03:34:28;;;;;;;48.60;28.60;;;;;;;-1.51;77.71;100161.63;220999;1280;22647;-72
2023/02/11 03:39:50;;;;;;;53.40;28.90;;;;;;;-1.50;77.88;100158.80;221275;1261;22538;-72
2023/02/11 03:44:59;;;;;;;50.20;28.40;;;;;;;-1.49;77.80;100147.52;221362;1277;22543;-71
2023/02/11 03:50:05;;;;;;;50.30;29.40;;;;;;;-1.50;78.00;100135.11;221185;1276;25505;-71
2023/02/11 03:55:15;;;;;;;46.90;25.70;;;;;;;-1.50;77.85;100122.19;221289;1277;24195;-70
2023/02/11 04:00:17;;;;;;;47.80;26.50;;;;;;;-1.50;77.66;100107.63;221221;1280;24259;-71
2023/02/11 04:05:19;;;;;;;45.80;25.80;;;;;;;-1.48;77.61;100089.23;221222;1277;22554;-71
2023/02/11 04:10:23;;;;;;;44.30;25.50;;;;;;;-1.47;77.61;100093.66;221177;1273;25393;-70
2023/02/11 04:15:26;;;;;;;42.70;24.60;;;;;;;-1.46;77.51;100077.36;221109;1280;25032;-72
2023/02/11 04:20:29;;;;;;;44.30;24.50;;;;;;;-1.45;77.34;100068.49;221252;1278;22569;-71
2023/02/11 04:25:32;;;;;;;41.10;22.90;;;;;;;-1.43;77.53;100068.75;221319;1273;25304;-71
2023/02/11 04:30:34;;;;;;;44.70;24.90;;;;;;;-1.42;77.30;100059.17;221227;1276;22635;-71
2023/02/11 04:35:36;;;;;;;41.80;25.30;;;;;;;-1.41;77.04;100052.77;221299;1276;24266;-71
2023/02/11 04:40:39;;;;;;;46.20;26.30;;;;;;;-1.41;77.43;100052.92;221428;1278;22547;-71
2023/02/11 04:45:41;;;;;;;38.40;23.40;;;;;;;-1.41;77.25;100067.80;221402;1276;22617;-72
2023/02/11 04:50:43;;;;;;;40.60;24.70;;;;;;;-1.40;77.56;100073.41;221028;1275;22702;-71
2023/02/11 04:55:49;;;;;;;40.90;22.30;;;;;;;-1.37;77.45;100069.81;221231;1280;22684;-72
2023/02/11 05:00:52;;;;;;;36.10;22.00;;;;;;;-1.34;77.55;100057.75;221268;1274;22577;-72
2023/02/11 05:05:55;;;;;;;40.80;23.20;;;;;;;-1.31;77.34;100061.39;221082;1278;22532;-70
2023/02/11 05:10:57;;;;;;;34.80;22.60;;;;;;;-1.28;77.48;100074.16;221260;1275;25519;-70
2023/02/11 05:15:59;;;;;;;38.00;22.70;;;;;;;-1.24;77.37;100064.81;221301;1278;22882;-71
2023/02/11 05:21:05;;;;;;;39.50;23.00;;;;;;;-1.22;77.53;100051.20;221403;1280;24284;-71
2023/02/11 05:26:08;;;;;;;38.20;23.40;;;;;;;-1.20;77.28;100056.48;221334;1273;22643;-72
2023/02/11 05:31:13;;;;;;;40.80;23.60;;;;;;;-1.18;77.64;100047.53;221323;1278;22557;-72
2023/02/11 05:36:16;;;;;;;39.30;23.30;;;;;;;-1.16;77.80;100053.45;221264;1278;22587;-72
2023/02/11 05:41:18;;;;;;;36.80;20.90;;;;;;;-1.12;77.54;100059.78;221243;1278;23784;-72
2023/02/11 05:46:20;;;;;;;37.10;21.60;;;;;;;-1.09;77.55;100060.52;221384;1256;25377;-72
2023/02/11 05:51:24;;;;;;;35.90;21.00;;;;;;;-1.08;77.59;100062.52;221354;1274;22617;-72
2023/02/11 05:56:27;;;;;;;39.70;23.10;;;;;;;-1.08;77.47;100065.13;221383;1256;22617;-72
2023/02/11 06:01:29;;;;;;;37.50;20.60;;;;;;;-1.10;77.56;100058.00;221307;1278;22677;-72
2023/02/11 06:06:31;;;;;;;38.50;22.40;;;;;;;-1.14;77.49;100033.29;221326;1272;22529;-72
2023/02/11 06:11:33;;;;;;;34.20;19.80;;;;;;;-1.17;77.38;100021.52;221287;1278;23461;-72
2023/02/11 06:16:35;;;;;;;35.10;20.80;;;;;;;-1.19;77.60;100015.58;221283;1275;22709;-72
2023/02/11 06:21:38;;;;;;;39.10;23.40;;;;;;;-1.19;77.68;100017.51;221463;1278;25514;-72
2023/02/11 06:26:45;;;;;;;33.60;21.80;;;;;;;-1.19;77.50;100012.14;221225;1276;24078;-71
2023/02/11 06:31:47;;;;;;;35.90;20.80;;;;;;;-1.17;77.86;100016.14;221425;1278;24403;-71
2023/02/11 06:36:49;;;;;;;36.20;21.30;;;;;;;-1.15;77.56;100021.94;221419;1275;22658;-71
2023/02/11 06:41:51;;;;;;;38.90;21.10;;;;;;;-1.14;77.92;100017.56;221429;1276;23335;-71
2023/02/11 06:46:53;;;;;;;34.90;21.50;;;;;;;-1.12;77.75;100011.08;221148;1276;22661;-72
2023/02/11 06:51:55;;;;;;;33.20;18.60;;;;;;;-1.09;78.02;100011.39;221358;1280;23256;-72
2023/02/11 06:56:57;;;;;;;36.90;22.20;;;;;;;-1.04;78.01;100016.86;221303;1278;22769;-72
2023/02/11 07:02:00;;;;;;;36.00;21.20;;;;;;;-1.00;78.01;100018.52;221245;1276;23205;-72
2023/02/11 07:07:01;;;;;;;34.80;20.20;;;;;;;-0.96;77.77;100013.84;221443;1274;22762;-71
2023/02/11 07:12:03;;;;;;;34.20;21.30;;;;;;;-0.97;77.73;100003.52;221424;1278;22671;-71
2023/02/11 07:17:05;;;;;;;35.00;21.70;;;;;;;-0.99;77.79;100006.58;221195;1279;25502;-72
2023/02/11 07:22:07;;;;;;;36.30;21.90;;;;;;;-1.02;78.17;100004.46;221515;1278;22558;-71
2023/02/11 07:27:09;;;;;;;37.90;21.70;;;;;;;-1.03;78.06;99999.37;221447;1278;22535;-72
2023/02/11 07:32:12;;;;;;;37.50;22.10;;;;;;;-1.01;78.23;99999.08;221205;1278;24398;-72
2023/02/11 07:37:15;;;;;;;37.10;21.40;;;;;;;-0.89;78.39;99992.70;221385;1278;22879;-72
2023/02/11 07:42:17;;;;;;;38.20;21.40;;;;;;;-0.61;78.72;99986.23;221218;1271;22700;-72
2023/02/11 07:47:19;;;;;;;40.30;22.90;;;;;;;-0.36;78.46;99981.30;221316;1275;22546;-72
2023/02/11 07:52:21;;;;;;;36.90;22.20;;;;;;;-0.14;78.11;99966.51;221469;1272;22573;-74
2023/02/11 07:57:24;;;;;;;42.80;26.00;;;;;;;0.03;77.61;99964.14;221439;1268;22540;-73
2023/02/11 08:02:26;;;;;;;38.50;23.40;;;;;;;0.21;77.53;99960.56;221337;1262;25222;-72
2023/02/11 08:07:28;;;;;;;37.70;22.70;;;;;;;0.41;77.28;99950.54;221388;1272;22648;-73
2023/02/11 08:12:40;;;;;;;36.70;22.70;;;;;;;0.56;76.86;99949.38;221694;1259;22546;-75
2023/02/11 08:18:02;;;;;;;38.50;22.40;;;;;;;0.75;76.64;99951.83;221009;1275;22562;-75
2023/02/11 08:23:07;;;;;;;39.80;23.70;;;;;;;0.92;76.33;99966.48;221352;1271;22587;-75
2023/02/11 08:28:09;;;;;;;35.70;22.30;;;;;;;1.06;75.86;99980.37;221224;1275;24338;-74
2023/02/11 08:33:12;;;;;;;37.90;22.70;;;;;;;1.17;75.65;99981.04;221004;1275;183120;-77
2023/02/11 08:38:18;;;;;;;41.10;23.80;;;;;;;1.26;74.98;99980.98;220978;1281;22533;-76
2023/02/11 08:43:22;;;;;;;39.00;23.90;;;;;;;1.38;75.48;99972.20;221306;1272;24129;-76
2023/02/11 08:48:24;;;;;;;37.70;22.30;;;;;;;1.50;75.25;99971.56;221277;1274;22556;-76
2023/02/11 08:53:26;;;;;;;35.90;20.90;;;;;;;1.60;74.86;99971.46;221415;1273;23018;-74
2023/02/11 08:58:28;;;;;;;36.20;22.70;;;;;;;1.67;74.59;99970.59;221364;1278;22586;-77
2023/02/11 09:03:31;;;;;;;39.40;24.90;;;;;;;1.82;74.42;99960.08;221216;1272;22589;-76
2023/02/11 09:08:35;;;;;;;37.00;23.30;;;;;;;1.96;73.84;99961.69;221516;1275;25448;-75
2023/02/11 09:13:41;;;;;;;36.40;22.70;;;;;;;2.11;73.51;99963.64;221497;1278;22527;-75
2023/02/11 09:18:44;;;;;;;35.80;22.80;;;;;;;2.22;73.41;99980.27;221587;1265;23958;-77
2023/02/11 09:23:47;;;;;;;35.30;20.40;;;;;;;2.29;72.83;99994.23;221630;1278;22562;-76
2023/02/11 09:28:50;;;;;;;36.80;22.80;;;;;;;2.23;72.32;99998.58;221384;1273;22485;-76
2023/02/11 09:33:59;;;;;;;36.90;23.30;;;;;;;2.25;72.56;100004.19;221516;1275;24272;-75
2023/02/11 09:39:04;;;;;;;40.20;24.90;;;;;;;2.29;72.70;100006.89;221635;1273;22730;-74
2023/02/11 09:44:16;;;;;;;32.70;21.20;;;;;;;2.38;72.65;100005.55;221455;1278;22584;-75
2023/02/11 09:49:30;;;;;;;38.20;23.20;;;;;;;2.44;72.28;100001.66;221461;1273;22582;-75
2023/02/11 09:54:53;;;;;;;37.10;23.70;;;;;;;2.52;72.09;99995.70;221290;1272;22536;-75
2023/02/11 09:59:56;;;;;;;39.70;23.90;;;;;;;2.70;72.08;99997.92;221531;1278;23950;-76
2023/02/11 10:05:41;;;;;;;37.30;22.10;;;;;;;2.86;71.69;99989.13;221346;1275;22543;-77
2023/02/11 10:10:52;;;;;;;41.20;25.20;;;;;;;2.99;71.38;99978.08;221733;1262;25382;-75
2023/02/11 10:16:10;;;;;;;40.50;24.60;;;;;;;3.17;71.35;99959.55;221634;1275;25326;-75
2023/02/11 10:21:34;;;;;;;37.30;23.20;;;;;;;3.32;71.06;99954.42;221751;1265;22562;-76
2023/02/11 10:26:39;;;;;;;40.60;24.50;;;;;;;3.37;70.75;99938.20;221725;1274;22541;-76
2023/02/11 10:31:43;;;;;;;38.00;24.80;;;;;;;3.38;70.56;99912.89;221771;1278;22559;-74
2023/02/11 10:36:49;;;;;;;36.80;23.50;;;;;;;3.41;70.27;99890.34;221680;1280;25382;-75
2023/02/11 10:42:10;;;;;;;42.80;24.90;;;;;;;3.46;70.29;99849.38;221831;1280;24757;-76
2023/02/11 10:47:21;;;;;;;36.60;23.70;;;;;;;3.57;70.69;99819.84;221694;1278;22549;-75
2023/02/11 10:52:27;;;;;;;37.00;23.60;;;;;;;3.80;70.96;99805.31;222016;1273;22595;-76
2023/02/11 10:57:43;;;;;;;35.60;23.70;;;;;;;4.10;70.62;99797.86;222038;1272;23361;-77
2023/02/11 11:02:57;;;;;;;34.80;21.90;;;;;;;4.35;70.14;99810.56;221988;1273;24261;-75
2023/02/11 11:08:03;;;;;;;34.20;23.10;;;;;;;4.37;69.19;99825.19;221641;1275;22607;-73
2023/02/11 11:13:19;;;;;;;36.70;22.60;;;;;;;4.20;68.82;99838.73;222005;1265;24276;-74
2023/02/11 11:18:22;;;;;;;35.80;24.10;;;;;;;3.93;68.75;99840.38;221621;1265;24623;-73
2023/02/11 11:23:29;;;;;;;39.20;24.50;;;;;;;3.76;69.79;99825.98;223066;1257;25445;-74
2023/02/11 11:28:50;;;;;;;34.20;21.40;;;;;;;3.70;70.01;99818.13;221634;1265;24136;-75
2023/02/11 11:33:54;;;;;;;37.80;23.60;;;;;;;3.63;70.16;99818.69;221875;1267;25328;-75
2023/02/11 11:39:00;;;;;;;39.40;24.60;;;;;;;3.57;70.29;99805.42;221777;1267;22584;-75
2023/02/11 11:44:13;;;;;;;35.20;23.50;;;;;;;3.44;70.49;99793.89;221398;1274;23018;-76
2023/02/11 11:49:27;;;;;;;38.00;24.80;;;;;;;3.36;70.84;99794.66;221624;1273;25478;-74
2023/02/11 11:54:30;;;;;;;37.10;23.20;;;;;;;3.40;70.86;99802.53;221854;1270;22543;-75
2023/02/11 11:59:32;;;;;;;35.80;23.50;;;;;;;3.40;70.98;99809.33;221573;1273;22880;-74
2023/02/11 12:04:54;;;;;;;37.90;22.00;;;;;;;3.39;71.19;99827.82;221255;1272;22570;-74
2023/02/11 12:10:25;;;;;;;39.20;23.50;;;;;;;3.34;71.12;99823.91;221210;1280;22567;-74
2023/02/11 12:15:54;;;;;;;37.90;23.00;;;;;;;3.28;71.29;99829.40;221244;1278;22536;-74
2023/02/11 12:21:05;;;;;;;35.20;21.30;;;;;;;3.27;71.26;99844.77;221399;1278;25409;-74
2023/02/11 12:26:13;;;;;;;38.00;23.90;;;;;;;3.25;71.60;99837.29;221552;1278;23354;-74
2023/02/11 12:31:36;;;;;;;39.50;24.10;;;;;;;3.22;71.88;99823.73;221490;1280;24269;-74
2023/02/11 12:37:04;;;;;;;39.70;23.30;;;;;;;3.21;72.06;99838.81;221311;1280;22662;-74
2023/02/11 12:48:14;;;;;;;39.20;25.40;;;;;;;3.08;73.46;99801.45;221302;1278;25111;-73
2023/02/11 12:53:40;;;;;;;39.70;24.10;;;;;;;2.99;74.83;99780.77;221440;1278;24291;-75
2023/02/11 12:58:43;;;;;;;38.40;25.90;;;;;;;2.89;75.73;99765.33;221396;1278;24292;-74
2023/02/11 13:03:59;;;;;;;38.70;24.10;;;;;;;2.85;76.28;99718.30;221461;1278;22766;-75
2023/02/11 13:09:08;;;;;;;39.90;25.20;;;;;;;2.86;76.41;99719.65;221428;1278;24335;-75
2023/02/11 13:14:35;;;;;;;38.30;24.10;;;;;;;2.87;76.85;99754.52;221481;1278;24240;-74
2023/02/11 13:19:48;;;;;;;40.40;24.30;;;;;;;2.88;76.97;99751.66;221394;1278;24232;-74
2023/02/11 13:25:05;;;;;;;40.70;25.00;;;;;;;2.85;77.13;99755.36;221282;1278;25250;-75
2023/02/11 13:30:18;;;;;;;42.10;25.20;;;;;;;2.83;77.55;99750.95;221173;1278;22530;-74
2023/02/11 13:35:31;;;;;;;38.80;22.70;;;;;;;2.85;78.06;99748.59;221516;1279;23302;-74
2023/02/11 13:40:38;;;;;;;38.70;23.20;;;;;;;2.85;78.59;99721.76;221298;1272;24261;-74
2023/02/11 13:45:49;;;;;;;44.60;26.40;;;;;;;2.89;78.51;99672.92;220894;1280;22725;-74
2023/02/11 13:50:58;;;;;;;41.50;25.40;;;;;;;2.93;80.16;99684.98;221124;1280;22578;-75
2023/02/11 13:56:11;;;;;;;36.30;23.10;;;;;;;2.94;80.20;99697.79;221328;1259;22546;-74
2023/02/11 14:01:40;;;;;;;36.70;22.60;;;;;;;2.94;79.56;99703.20;221041;1280;22618;-73
2023/02/11 14:13:06;;;;;;;34.70;21.60;;;;;;;2.97;78.88;99711.42;221364;1280;22542;-74
2023/02/11 14:18:47;;;;;;;37.40;23.80;;;;;;;3.00;78.58;99715.05;221335;1278;23305;-74
2023/02/11 14:23:52;;;;;;;35.60;21.10;;;;;;;3.04;78.53;99719.50;221410;1280;22690;-74
2023/02/11 14:29:16;;;;;;;36.80;22.40;;;;;;;3.03;78.56;99727.38;221366;1279;22578;-73
2023/02/11 14:35:02;;;;;;;35.60;22.60;;;;;;;3.01;78.31;99729.43;221209;1277;25319;-74
2023/02/11 14:40:29;;;;;;;41.90;24.90;;;;;;;2.97;78.27;99727.29;221014;1279;25376;-73
2023/02/11 14:45:34;;;;;;;38.90;23.30;;;;;;;2.94;78.42;99731.08;221445;1278;22690;-74
2023/02/11 14:50:50;;;;;;;36.80;23.80;;;;;;;2.88;78.43;99738.77;221307;1279;22603;-74
2023/02/11 14:55:54;;;;;;;35.90;21.50;;;;;;;2.85;78.18;99741.08;221426;1278;22557;-74
2023/02/11 15:01:21;;;;;;;38.70;23.10;;;;;;;2.82;78.28;99738.14;221149;1280;25284;-73
2023/02/11 15:06:29;;;;;;;35.80;22.20;;;;;;;2.80;78.47;99743.19;221350;1278;22540;-74
2023/02/11 15:11:39;;;;;;;37.10;23.60;;;;;;;2.80;78.42;99761.31;221272;1278;22546;-74
2023/02/11 15:16:43;;;;;;;;;;;;;;;2.81;78.48;99760.54;221814;1280;22504;-75
2023/02/11 15:21:46;;;;;;;38.80;23.10;;;;;;;2.80;78.70;99766.31;221501;1280;22854;-75
2023/02/11 15:27:00;;;;;;;40.20;25.40;;;;;;;2.79;78.53;99768.17;221331;1280;22573;-74
2023/02/11 15:32:17;;;;;;;40.20;22.20;;;;;;;2.78;78.56;99775.35;221379;1275;22552;-74
2023/02/11 15:37:28;;;;;;;42.40;25.40;;;;;;;2.75;79.22;99786.57;221128;1280;22534;-75
2023/02/11 15:42:31;;;;;;;35.00;22.20;;;;;;;2.67;79.11;99793.98;221504;1273;22529;-74
2023/02/11 15:47:55;;;;;;;35.70;21.80;;;;;;;2.56;79.99;99796.34;221092;1280;23158;-74
2023/02/11 15:53:01;;;;;;;42.60;25.80;;;;;;;2.43;80.48;99797.09;221277;1278;25436;-74
2023/02/11 15:58:04;;;;;;;37.60;24.30;;;;;;;2.33;80.81;99802.20;221341;1280;22727;-74
2023/02/11 16:03:19;;;;;;;40.10;24.30;;;;;;;2.25;81.50;99802.45;221194;1280;22541;-74
2023/02/11 16:08:25;;;;;;;40.40;24.60;;;;;;;2.16;81.94;99811.38;221256;1280;23947;-74
2023/02/11 16:13:32;;;;;;;40.80;23.80;;;;;;;2.11;82.27;99813.85;221191;1276;22540;-74
2023/02/11 16:18:49;;;;;;;41.70;26.80;;;;;;;2.05;82.88;99821.58;221250;1280;25474;-75
2023/02/11 16:24:14;;;;;;;45.60;27.50;;;;;;;1.99;83.41;99816.74;221342;1280;22666;-75
2023/02/11 16:29:23;;;;;;;42.00;27.60;;;;;;;1.95;83.83;99816.00;221392;1279;22669;-75
2023/02/11 16:34:26;;;;;;;47.50;29.20;;;;;;;1.93;84.03;99818.58;221383;1279;23239;-75
2023/02/11 16:39:29;;;;;;;49.00;31.30;;;;;;;1.92;84.04;99825.14;221384;1276;23839;-75
2023/02/11 16:44:33;;;;;;;48.50;29.40;;;;;;;1.89;84.37;99825.33;221286;1280;24357;-74
2023/02/11 16:49:39;;;;;;;53.80;33.70;;;;;;;1.87;84.54;99822.85;221503;1280;25459;-75
2023/02/11 16:54:41;;;;;;;47.40;29.70;;;;;;;1.89;84.73;99829.68;221397;1279;24234;-76
2023/02/11 16:59:45;;;;;;;52.40;31.90;;;;;;;1.89;85.02;99835.89;221392;1280;22543;-75
2023/02/11 17:04:48;;;;;;;50.20;31.90;;;;;;;1.91;85.06;99834.75;221565;1280;23802;-75
2023/02/11 17:09:51;;;;;;;48.90;29.80;;;;;;;1.91;85.05;99836.97;221388;1280;24394;-75
2023/02/11 17:14:53;;;;;;;48.60;28.30;;;;;;;1.93;85.46;99840.33;221410;1280;22549;-76
2023/02/11 17:19:56;;;;;;;52.90;33.80;;;;;;;1.92;85.70;99846.80;221392;1279;26607;-75
2023/02/11 17:24:58;;;;;;;51.10;31.00;;;;;;;1.93;85.89;99845.48;221260;1280;24324;-75
2023/02/11 17:30:04;;;;;;;53.30;33.60;;;;;;;1.93;86.09;99849.48;221486;1280;25252;-74
2023/02/11 17:35:08;;;;;;;56.20;33.50;;;;;;;1.93;86.14;99847.59;221410;1281;25077;-75
2023/02/11 17:40:11;;;;;;;57.60;33.60;;;;;;;1.94;86.38;99851.86;221202;1280;22537;-75
2023/02/11 17:45:13;;;;;;;53.50;33.30;;;;;;;1.97;86.31;99857.07;221184;1276;22538;-74
2023/02/11 17:50:16;;;;;;;56.20;32.80;;;;;;;1.98;86.44;99855.25;221311;1280;22575;-75
2023/02/11 17:55:19;;;;;;;57.70;33.30;;;;;;;1.98;86.90;99856.09;221139;1278;22552;-75
2023/02/11 18:00:21;;;;;;;54.40;32.90;;;;;;;1.98;87.32;99850.21;221390;1280;24251;-74
2023/02/11 18:05:26;;;;;;;56.40;33.60;;;;;;;1.97;87.02;99846.41;221323;1280;24871;-74
2023/02/11 18:10:28;;;;;;;53.10;34.30;;;;;;;2.00;87.46;99856.17;221389;1280;23801;-75
2023/02/11 18:15:32;;;;;;;58.60;35.10;;;;;;;2.02;87.07;99851.15;221278;1273;25344;-75
2023/02/11 18:20:35;;;;;;;58.50;34.10;;;;;;;2.04;87.12;99858.15;221253;1280;22546;-75
2023/02/11 18:25:41;;;;;;;53.20;34.60;;;;;;;2.05;87.28;99857.55;221277;1274;22542;-74
2023/02/11 18:30:44;;;;;;;58.40;36.10;;;;;;;2.06;87.32;99858.81;221349;1276;25248;-75
2023/02/11 18:35:47;;;;;;;55.80;34.60;;;;;;;2.11;87.40;99863.50;221445;1280;25295;-74
2023/02/11 18:40:51;;;;;;;54.80;33.80;;;;;;;2.15;87.40;99869.14;221469;1280;22647;-74
2023/02/11 18:45:53;;;;;;;57.30;36.30;;;;;;;2.17;87.28;99872.15;221409;1276;22556;-75
2023/02/11 18:50:56;;;;;;;55.10;33.30;;;;;;;2.21;87.40;99869.92;221447;1276;22599;-75
2023/02/11 18:56:05;;;;;;;54.70;34.30;;;;;;;2.25;87.36;99876.59;221460;1276;22744;-76
2023/02/11 19:01:10;;;;;;;53.10;34.20;;;;;;;2.31;87.44;99878.10;221261;1280;22541;-76
2023/02/11 19:06:18;;;;;;;55.90;34.20;;;;;;;2.36;87.33;99877.73;221230;1280;22559;-74
2023/02/11 19:11:45;;;;;;;55.40;36.00;;;;;;;2.41;87.44;99886.23;221457;1276;22543;-74
2023/02/11 19:16:48;;;;;;;55.80;34.80;;;;;;;2.46;87.71;99883.63;221475;1264;22802;-74
2023/02/11 19:21:51;;;;;;;54.40;34.90;;;;;;;2.48;87.39;99896.85;221436;1276;22680;-75
2023/02/11 19:26:57;;;;;;;51.30;32.60;;;;;;;2.53;87.77;99899.68;221411;1276;22566;-75
2023/02/11 19:32:02;;;;;;;54.90;34.30;;;;;;;2.58;87.94;99898.27;221486;1276;22607;-75
2023/02/11 19:37:04;;;;;;;47.20;30.10;;;;;;;2.65;88.15;99902.42;221394;1280;23067;-75
2023/02/11 19:42:07;;;;;;;45.10;28.90;;;;;;;2.74;88.24;99900.19;221382;1280;22585;-74
2023/02/11 19:47:09;;;;;;;45.20;30.50;;;;;;;2.87;88.69;99897.88;221309;1278;22551;-74
2023/02/11 19:52:12;;;;;;;48.40;31.10;;;;;;;2.99;88.83;99896.80;221135;1276;26507;-75
2023/02/11 19:57:15;;;;;;;41.70;27.90;;;;;;;3.11;88.86;99897.48;221262;1276;24238;-75
2023/02/11 20:02:18;;;;;;;39.50;25.80;;;;;;;3.21;88.99;99900.59;221377;1277;22564;-74
2023/02/11 20:07:20;;;;;;;37.00;25.40;;;;;;;3.30;88.95;99900.59;221359;1280;22545;-75
2023/02/11 20:12:23;;;;;;;36.80;24.50;;;;;;;3.38;88.94;99895.88;221378;1268;22750;-74
2023/02/11 20:17:26;;;;;;;32.90;24.10;;;;;;;3.44;88.91;99896.06;221041;1280;22653;-75
2023/02/11 20:22:28;;;;;;;30.60;20.40;;;;;;;3.50;88.86;99898.91;221211;1278;25395;-75
2023/02/11 20:27:32;;;;;;;30.00;20.50;;;;;;;3.57;88.86;99897.04;221220;1277;24255;-74
2023/02/11 20:32:37;;;;;;;32.80;22.20;;;;;;;3.61;88.99;99904.34;221370;1272;22622;-75
2023/02/11 20:37:42;;;;;;;23.50;16.90;;;;;;;3.65;89.10;99912.21;221530;1280;93394;-75
2023/02/11 20:42:45;;;;;;;24.70;17.60;;;;;;;3.71;89.28;99920.15;221297;1279;22561;-75
2023/02/11 20:47:47;;;;;;;23.90;17.40;;;;;;;3.75;89.30;99917.58;221367;1280;22546;-75
2023/02/11 20:52:50;;;;;;;27.30;17.70;;;;;;;3.78;89.28;99923.45;221276;1280;22654;-73
2023/02/11 20:57:53;;;;;;;24.70;16.80;;;;;;;3.80;89.33;99932.18;221179;1280;22556;-75
2023/02/11 21:02:57;;;;;;;22.40;16.30;;;;;;;3.81;89.32;99940.29;221704;1273;22887;-75
2023/02/11 21:07:59;;;;;;;23.30;17.80;;;;;;;3.83;89.49;99943.45;221361;1280;22714;-75
2023/02/11 21:13:02;;;;;;;22.90;17.00;;;;;;;3.85;89.38;99951.98;221281;1276;25349;-75
2023/02/11 21:18:04;;;;;;;22.70;17.20;;;;;;;3.87;89.48;99946.59;221148;1278;22543;-75
2023/02/11 21:23:07;;;;;;;21.10;15.40;;;;;;;3.88;89.48;99949.48;221270;1279;24242;-75
2023/02/11 21:28:10;;;;;;;17.90;14.50;;;;;;;3.89;89.55;99953.21;221228;1278;22555;-74
2023/02/11 21:33:12;;;;;;;21.00;15.00;;;;;;;3.90;89.59;99960.15;221387;1257;22549;-74
2023/02/11 21:38:15;;;;;;;20.80;14.90;;;;;;;3.92;89.41;99964.17;221255;1278;22553;-75
2023/02/11 21:43:17;;;;;;;20.10;14.60;;;;;;;3.96;89.60;99981.15;221215;1276;24260;-75
2023/02/11 21:48:20;;;;;;;18.50;14.50;;;;;;;3.96;89.34;99990.88;221512;1257;22536;-75
2023/02/11 21:53:22;;;;;;;18.90;14.90;;;;;;;3.99;89.36;99995.05;221403;1280;22690;-74
2023/02/11 21:58:24;;;;;;;19.10;15.00;;;;;;;4.00;89.31;100003.56;221392;1275;24288;-75
2023/02/11 22:03:28;;;;;;;20.60;15.30;;;;;;;4.00;89.33;100002.30;221274;1280;22557;-75
2023/02/11 22:08:30;;;;;;;19.40;14.80;;;;;;;4.01;89.29;100004.66;221240;1278;22540;-74
2023/02/11 22:13:40;;;;;;;22.20;16.10;;;;;;;4.02;89.31;100003.18;221220;1280;22612;-74
2023/02/11 22:18:45;;;;;;;22.60;16.40;;;;;;;4.02;89.22;100002.63;221287;1273;22544;-75
2023/02/11 22:23:49;;;;;;;23.40;17.50;;;;;;;4.02;89.07;100008.08;221327;1273;23272;-74
2023/02/11 22:28:52;;;;;;;23.40;17.60;;;;;;;4.03;89.32;100019.13;221393;1280;25304;-73
2023/02/11 22:33:55;;;;;;;24.50;17.50;;;;;;;4.02;89.36;100027.71;221247;1280;25306;-75
2023/02/11 22:39:00;;;;;;;22.00;17.20;;;;;;;4.01;89.26;100030.13;221392;1280;25494;-75
2023/02/11 22:44:03;;;;;;;27.00;18.30;;;;;;;4.01;89.38;100037.06;221880;1276;22580;-73
2023/02/11 22:49:14;;;;;;;23.50;17.30;;;;;;;4.01;89.47;100040.88;221286;1280;22639;-74
2023/02/11 22:54:17;;;;;;;22.50;17.10;;;;;;;4.03;89.41;100038.30;221398;1278;24263;-75
2023/02/11 22:59:20;;;;;;;21.20;16.80;;;;;;;4.03;89.62;100044.58;221402;1276;22536;-74
2023/02/11 23:04:22;;;;;;;23.20;16.80;;;;;;;4.04;89.58;100048.20;221226;1280;23015;-75
2023/02/11 23:09:24;;;;;;;22.60;16.80;;;;;;;4.05;89.77;100055.44;221430;1280;23941;-75
2023/02/11 23:14:27;;;;;;;22.70;16.80;;;;;;;4.04;89.64;100056.35;221376;1278;22539;-74
2023/02/11 23:19:29;;;;;;;21.60;16.20;;;;;;;4.05;89.90;100059.27;221253;1276;22652;-74
2023/02/11 23:24:32;;;;;;;20.50;15.20;;;;;;;4.06;89.83;100063.71;221254;1280;22659;-75
2023/02/11 23:29:34;;;;;;;22.40;15.90;;;;;;;4.05;89.79;100066.91;221223;1276;24229;-75
2023/02/11 23:34:36;;;;;;;21.10;15.40;;;;;;;4.04;89.86;100072.08;221337;1276;22547;-75
2023/02/11 23:39:39;;;;;;;23.90;16.60;;;;;;;4.05;89.85;100077.36;221404;1273;25418;-74